sensor_id;sensor_type;location;lat;lon;timestamp;P1;durP1;ratioP1;P2;durP2;ratioP2
5555;SDS011;2801;50.972;7.856;2022-09-29T00:01:03;41.83;;;6.43;;
5555;SDS011;2801;50.972;7.856;2022-09-29T00:03:31;33.13;;;5.90;;
5555;SDS011;2801;50.972;7.856;2022-09-29T00:05:58;60.63;;;7.70;;
5555;SDS011;2801;50.972;7.856;2022-09-29T00:08:26;61.63;;;7.60;;
5555;SDS011;2801;50.972;7.856;2022-09-29T00:10:55;43.67;;;6.53;;
5555;SDS011;2801;50.972;7.856;2022-09-29T00:13:22;57.60;;;7.37;;
5555;SDS011;2801;50.972;7.856;2022-09-29T00:15:58;55.47;;;6.57;;
5555;SDS011;2801;50.972;7.856;2022-09-29T00:18:28;59.97;;;7.00;;
5555;SDS011;2801;50.972;7.856;2022-09-29T00:20:58;42.17;;;6.10;;
5555;SDS011;2801;50.972;7.856;2022-09-29T00:23:29;44.07;;;6.30;;
5555;SDS011;2801;50.972;7.856;2022-09-29T00:26:02;47.47;;;6.03;;
5555;SDS011;2801;50.972;7.856;2022-09-29T00:28:37;31.47;;;5.40;;
5555;SDS011;2801;50.972;7.856;2022-09-29T00:31:06;61.80;;;6.57;;
5555;SDS011;2801;50.972;7.856;2022-09-29T00:33:36;44.47;;;5.60;;
5555;SDS011;2801;50.972;7.856;2022-09-29T00:36:05;76.63;;;7.90;;
5555;SDS011;2801;50.972;7.856;2022-09-29T00:38:39;36.50;;;5.60;;
5555;SDS011;2801;50.972;7.856;2022-09-29T00:41:16;35.27;;;5.60;;
5555;SDS011;2801;50.972;7.856;2022-09-29T00:43:50;44.83;;;5.97;;
5555;SDS011;2801;50.972;7.856;2022-09-29T00:46:19;42.00;;;6.33;;
5555;SDS011;2801;50.972;7.856;2022-09-29T00:48:52;64.70;;;6.87;;
5555;SDS011;2801;50.972;7.856;2022-09-29T00:51:43;57.93;;;7.13;;
5555;SDS011;2801;50.972;7.856;2022-09-29T00:54:20;37.60;;;6.10;;
5555;SDS011;2801;50.972;7.856;2022-09-29T00:56:53;26.23;;;5.50;;
5555;SDS011;2801;50.972;7.856;2022-09-29T00:59:26;35.77;;;6.30;;
5555;SDS011;2801;50.972;7.856;2022-09-29T01:02:18;34.27;;;5.37;;
5555;SDS011;2801;50.972;7.856;2022-09-29T01:04:47;39.77;;;5.87;;
5555;SDS011;2801;50.972;7.856;2022-09-29T01:07:19;25.93;;;5.33;;
5555;SDS011;2801;50.972;7.856;2022-09-29T01:09:49;47.43;;;6.00;;
5555;SDS011;2801;50.972;7.856;2022-09-29T01:12:19;45.73;;;5.43;;
5555;SDS011;2801;50.972;7.856;2022-09-29T01:14:47;29.77;;;5.30;;
5555;SDS011;2801;50.972;7.856;2022-09-29T01:17:16;44.60;;;5.23;;
5555;SDS011;2801;50.972;7.856;2022-09-29T01:20:04;33.80;;;4.83;;
5555;SDS011;2801;50.972;7.856;2022-09-29T01:22:49;35.10;;;4.97;;
5555;SDS011;2801;50.972;7.856;2022-09-29T01:25:53;41.63;;;5.30;;
5555;SDS011;2801;50.972;7.856;2022-09-29T01:32:21;34.63;;;4.80;;
5555;SDS011;2801;50.972;7.856;2022-09-29T01:44:36;27.90;;;4.70;;
5555;SDS011;2801;50.972;7.856;2022-09-29T01:47:24;37.47;;;4.50;;
5555;SDS011;2801;50.972;7.856;2022-09-29T01:50:01;33.23;;;4.90;;
5555;SDS011;2801;50.972;7.856;2022-09-29T01:52:40;34.17;;;4.60;;
5555;SDS011;2801;50.972;7.856;2022-09-29T01:55:15;43.83;;;5.33;;
5555;SDS011;2801;50.972;7.856;2022-09-29T01:57:49;47.80;;;5.27;;
5555;SDS011;2801;50.972;7.856;2022-09-29T02:00:22;32.00;;;5.23;;
5555;SDS011;2801;50.972;7.856;2022-09-29T02:03:07;44.80;;;5.17;;
5555;SDS011;2801;50.972;7.856;2022-09-29T02:05:54;35.70;;;4.93;;
5555;SDS011;2801;50.972;7.856;2022-09-29T02:08:27;42.70;;;5.87;;
5555;SDS011;2801;50.972;7.856;2022-09-29T02:11:11;41.33;;;5.77;;
5555;SDS011;2801;50.972;7.856;2022-09-29T02:13:40;42.90;;;5.90;;
5555;SDS011;2801;50.972;7.856;2022-09-29T02:16:16;33.37;;;5.27;;
5555;SDS011;2801;50.972;7.856;2022-09-29T02:21:25;50.97;;;5.53;;
5555;SDS011;2801;50.972;7.856;2022-09-29T02:23:53;49.00;;;5.33;;
5555;SDS011;2801;50.972;7.856;2022-09-29T02:26:21;34.47;;;4.77;;
5555;SDS011;2801;50.972;7.856;2022-09-29T02:28:53;44.43;;;5.10;;
5555;SDS011;2801;50.972;7.856;2022-09-29T02:31:20;35.80;;;4.73;;
5555;SDS011;2801;50.972;7.856;2022-09-29T02:33:48;58.23;;;5.97;;
5555;SDS011;2801;50.972;7.856;2022-09-29T02:42:27;35.53;;;4.70;;
5555;SDS011;2801;50.972;7.856;2022-09-29T02:47:49;51.33;;;4.93;;
5555;SDS011;2801;50.972;7.856;2022-09-29T02:50:40;38.60;;;4.90;;
5555;SDS011;2801;50.972;7.856;2022-09-29T02:56:28;53.00;;;5.30;;
5555;SDS011;2801;50.972;7.856;2022-09-29T03:02:38;46.73;;;5.03;;
5555;SDS011;2801;50.972;7.856;2022-09-29T03:05:09;46.50;;;4.90;;
5555;SDS011;2801;50.972;7.856;2022-09-29T03:07:47;51.63;;;5.37;;
5555;SDS011;2801;50.972;7.856;2022-09-29T03:10:15;59.53;;;5.27;;
5555;SDS011;2801;50.972;7.856;2022-09-29T03:12:43;57.67;;;4.90;;
5555;SDS011;2801;50.972;7.856;2022-09-29T03:15:10;33.43;;;4.30;;
5555;SDS011;2801;50.972;7.856;2022-09-29T03:17:39;73.37;;;5.47;;
5555;SDS011;2801;50.972;7.856;2022-09-29T03:20:06;40.33;;;4.13;;
5555;SDS011;2801;50.972;7.856;2022-09-29T03:22:34;37.30;;;4.30;;
5555;SDS011;2801;50.972;7.856;2022-09-29T03:25:01;47.40;;;4.50;;
5555;SDS011;2801;50.972;7.856;2022-09-29T03:27:31;29.70;;;4.40;;
5555;SDS011;2801;50.972;7.856;2022-09-29T03:29:59;55.40;;;4.73;;
5555;SDS011;2801;50.972;7.856;2022-09-29T03:32:26;47.30;;;4.50;;
5555;SDS011;2801;50.972;7.856;2022-09-29T03:34:52;22.93;;;4.03;;
5555;SDS011;2801;50.972;7.856;2022-09-29T03:37:19;23.57;;;3.80;;
5555;SDS011;2801;50.972;7.856;2022-09-29T03:39:46;32.20;;;4.13;;
5555;SDS011;2801;50.972;7.856;2022-09-29T03:42:13;33.43;;;4.17;;
5555;SDS011;2801;50.972;7.856;2022-09-29T03:44:41;29.00;;;4.57;;
5555;SDS011;2801;50.972;7.856;2022-09-29T03:47:07;33.40;;;4.30;;
5555;SDS011;2801;50.972;7.856;2022-09-29T03:49:34;24.70;;;4.07;;
5555;SDS011;2801;50.972;7.856;2022-09-29T03:52:01;30.63;;;4.23;;
5555;SDS011;2801;50.972;7.856;2022-09-29T03:54:28;26.27;;;3.83;;
5555;SDS011;2801;50.972;7.856;2022-09-29T03:56:55;41.33;;;3.90;;
5555;SDS011;2801;50.972;7.856;2022-09-29T03:59:22;28.97;;;3.90;;
5555;SDS011;2801;50.972;7.856;2022-09-29T04:01:48;30.17;;;3.50;;
5555;SDS011;2801;50.972;7.856;2022-09-29T04:04:15;25.20;;;3.53;;
5555;SDS011;2801;50.972;7.856;2022-09-29T04:06:42;34.73;;;4.13;;
5555;SDS011;2801;50.972;7.856;2022-09-29T04:09:09;27.67;;;3.47;;
5555;SDS011;2801;50.972;7.856;2022-09-29T04:11:36;28.93;;;3.60;;
5555;SDS011;2801;50.972;7.856;2022-09-29T04:14:03;34.37;;;4.30;;
5555;SDS011;2801;50.972;7.856;2022-09-29T04:16:33;17.53;;;3.53;;
5555;SDS011;2801;50.972;7.856;2022-09-29T04:19:00;31.67;;;3.63;;
5555;SDS011;2801;50.972;7.856;2022-09-29T04:21:26;26.93;;;3.60;;
5555;SDS011;2801;50.972;7.856;2022-09-29T04:23:53;30.07;;;3.80;;
5555;SDS011;2801;50.972;7.856;2022-09-29T04:26:20;17.90;;;3.20;;
5555;SDS011;2801;50.972;7.856;2022-09-29T04:28:47;37.37;;;3.93;;
5555;SDS011;2801;50.972;7.856;2022-09-29T04:31:14;31.60;;;3.70;;
5555;SDS011;2801;50.972;7.856;2022-09-29T04:33:41;25.43;;;3.23;;
5555;SDS011;2801;50.972;7.856;2022-09-29T04:36:07;19.37;;;3.17;;
5555;SDS011;2801;50.972;7.856;2022-09-29T04:38:35;24.27;;;3.43;;
5555;SDS011;2801;50.972;7.856;2022-09-29T04:41:01;30.10;;;3.67;;
5555;SDS011;2801;50.972;7.856;2022-09-29T04:43:29;29.33;;;3.20;;
5555;SDS011;2801;50.972;7.856;2022-09-29T04:46:02;28.77;;;4.13;;
5555;SDS011;2801;50.972;7.856;2022-09-29T04:48:32;41.47;;;4.33;;
5555;SDS011;2801;50.972;7.856;2022-09-29T04:51:01;20.70;;;3.17;;
5555;SDS011;2801;50.972;7.856;2022-09-29T04:53:30;34.70;;;3.50;;
5555;SDS011;2801;50.972;7.856;2022-09-29T04:55:57;26.67;;;3.67;;
5555;SDS011;2801;50.972;7.856;2022-09-29T04:58:24;38.67;;;3.73;;
5555;SDS011;2801;50.972;7.856;2022-09-29T05:00:50;36.53;;;4.20;;
5555;SDS011;2801;50.972;7.856;2022-09-29T05:03:17;62.63;;;5.00;;
5555;SDS011;2801;50.972;7.856;2022-09-29T05:05:44;55.27;;;4.50;;
5555;SDS011;2801;50.972;7.856;2022-09-29T05:08:11;37.27;;;4.30;;
5555;SDS011;2801;50.972;7.856;2022-09-29T05:10:38;44.97;;;4.30;;
5555;SDS011;2801;50.972;7.856;2022-09-29T05:13:04;45.23;;;4.20;;
5555;SDS011;2801;50.972;7.856;2022-09-29T05:15:31;61.67;;;5.00;;
5555;SDS011;2801;50.972;7.856;2022-09-29T05:18:01;40.47;;;4.40;;
5555;SDS011;2801;50.972;7.856;2022-09-29T05:20:28;52.93;;;4.33;;
5555;SDS011;2801;50.972;7.856;2022-09-29T05:23:06;30.73;;;3.20;;
5555;SDS011;2801;50.972;7.856;2022-09-29T05:25:36;29.77;;;3.63;;
5555;SDS011;2801;50.972;7.856;2022-09-29T05:28:03;34.03;;;4.43;;
5555;SDS011;2801;50.972;7.856;2022-09-29T05:30:30;31.13;;;3.93;;
5555;SDS011;2801;50.972;7.856;2022-09-29T05:32:57;39.00;;;4.20;;
5555;SDS011;2801;50.972;7.856;2022-09-29T05:35:24;50.57;;;5.03;;
5555;SDS011;2801;50.972;7.856;2022-09-29T05:37:51;22.03;;;3.63;;
5555;SDS011;2801;50.972;7.856;2022-09-29T05:40:18;28.77;;;4.00;;
5555;SDS011;2801;50.972;7.856;2022-09-29T05:42:49;34.87;;;4.10;;
5555;SDS011;2801;50.972;7.856;2022-09-29T05:45:17;33.47;;;4.00;;
5555;SDS011;2801;50.972;7.856;2022-09-29T05:47:44;29.23;;;4.83;;
5555;SDS011;2801;50.972;7.856;2022-09-29T05:50:11;34.57;;;5.13;;
5555;SDS011;2801;50.972;7.856;2022-09-29T05:52:38;42.90;;;5.30;;
5555;SDS011;2801;50.972;7.856;2022-09-29T05:55:06;38.43;;;4.63;;
5555;SDS011;2801;50.972;7.856;2022-09-29T05:57:36;41.90;;;4.60;;
5555;SDS011;2801;50.972;7.856;2022-09-29T06:00:03;37.67;;;4.43;;
5555;SDS011;2801;50.972;7.856;2022-09-29T06:02:33;30.13;;;4.70;;
5555;SDS011;2801;50.972;7.856;2022-09-29T06:05:00;40.03;;;4.90;;
5555;SDS011;2801;50.972;7.856;2022-09-29T06:07:27;31.30;;;4.37;;
5555;SDS011;2801;50.972;7.856;2022-09-29T06:09:54;21.53;;;3.73;;
5555;SDS011;2801;50.972;7.856;2022-09-29T06:12:20;35.63;;;4.73;;
5555;SDS011;2801;50.972;7.856;2022-09-29T06:14:47;52.03;;;5.20;;
5555;SDS011;2801;50.972;7.856;2022-09-29T06:17:14;35.07;;;5.17;;
5555;SDS011;2801;50.972;7.856;2022-09-29T06:19:41;33.30;;;5.20;;
5555;SDS011;2801;50.972;7.856;2022-09-29T06:22:10;27.87;;;4.43;;
5555;SDS011;2801;50.972;7.856;2022-09-29T06:24:37;27.37;;;4.50;;
5555;SDS011;2801;50.972;7.856;2022-09-29T06:27:03;33.87;;;4.73;;
5555;SDS011;2801;50.972;7.856;2022-09-29T06:29:30;44.63;;;5.47;;
5555;SDS011;2801;50.972;7.856;2022-09-29T06:31:57;46.47;;;4.60;;
5555;SDS011;2801;50.972;7.856;2022-09-29T06:34:24;43.63;;;5.07;;
5555;SDS011;2801;50.972;7.856;2022-09-29T06:36:51;27.43;;;4.40;;
5555;SDS011;2801;50.972;7.856;2022-09-29T06:39:37;27.10;;;4.97;;
5555;SDS011;2801;50.972;7.856;2022-09-29T06:42:03;59.40;;;6.70;;
5555;SDS011;2801;50.972;7.856;2022-09-29T06:44:30;45.03;;;5.60;;
5555;SDS011;2801;50.972;7.856;2022-09-29T06:46:57;57.37;;;6.20;;
5555;SDS011;2801;50.972;7.856;2022-09-29T06:49:25;66.27;;;6.60;;
5555;SDS011;2801;50.972;7.856;2022-09-29T06:51:52;55.27;;;6.00;;
5555;SDS011;2801;50.972;7.856;2022-09-29T06:54:20;72.27;;;7.10;;
5555;SDS011;2801;50.972;7.856;2022-09-29T06:56:50;72.83;;;6.53;;
5555;SDS011;2801;50.972;7.856;2022-09-29T06:59:19;61.53;;;7.07;;
5555;SDS011;2801;50.972;7.856;2022-09-29T07:01:46;48.90;;;7.07;;
5555;SDS011;2801;50.972;7.856;2022-09-29T07:04:17;74.27;;;7.93;;
5555;SDS011;2801;50.972;7.856;2022-09-29T07:06:45;49.60;;;7.10;;
5555;SDS011;2801;50.972;7.856;2022-09-29T07:09:13;64.87;;;7.50;;
5555;SDS011;2801;50.972;7.856;2022-09-29T07:11:43;56.83;;;7.67;;
5555;SDS011;2801;50.972;7.856;2022-09-29T07:14:13;85.93;;;9.23;;
5555;SDS011;2801;50.972;7.856;2022-09-29T07:16:42;56.63;;;8.30;;
5555;SDS011;2801;50.972;7.856;2022-09-29T07:19:09;42.27;;;6.37;;
5555;SDS011;2801;50.972;7.856;2022-09-29T07:21:36;83.97;;;9.00;;
5555;SDS011;2801;50.972;7.856;2022-09-29T07:24:03;41.43;;;6.77;;
5555;SDS011;2801;50.972;7.856;2022-09-29T07:26:30;59.00;;;7.77;;
5555;SDS011;2801;50.972;7.856;2022-09-29T07:28:57;52.70;;;7.87;;
5555;SDS011;2801;50.972;7.856;2022-09-29T07:31:24;105.50;;;10.63;;
5555;SDS011;2801;50.972;7.856;2022-09-29T07:33:51;80.77;;;9.70;;
5555;SDS011;2801;50.972;7.856;2022-09-29T07:36:18;97.43;;;9.10;;
5555;SDS011;2801;50.972;7.856;2022-09-29T07:38:46;158.73;;;13.13;;
5555;SDS011;2801;50.972;7.856;2022-09-29T07:41:16;72.33;;;9.23;;
5555;SDS011;2801;50.972;7.856;2022-09-29T07:43:45;50.83;;;8.33;;
5555;SDS011;2801;50.972;7.856;2022-09-29T07:46:12;31.77;;;7.93;;
5555;SDS011;2801;50.972;7.856;2022-09-29T07:48:39;27.70;;;7.10;;
5555;SDS011;2801;50.972;7.856;2022-09-29T07:51:08;20.53;;;7.43;;
5555;SDS011;2801;50.972;7.856;2022-09-29T07:53:37;30.13;;;7.27;;
5555;SDS011;2801;50.972;7.856;2022-09-29T07:56:06;89.27;;;9.17;;
5555;SDS011;2801;50.972;7.856;2022-09-29T07:58:43;58.77;;;7.90;;
5555;SDS011;2801;50.972;7.856;2022-09-29T08:01:12;38.87;;;7.00;;
5555;SDS011;2801;50.972;7.856;2022-09-29T08:03:42;18.43;;;7.13;;
5555;SDS011;2801;50.972;7.856;2022-09-29T08:06:14;18.43;;;7.07;;
5555;SDS011;2801;50.972;7.856;2022-09-29T08:08:41;15.03;;;6.20;;
5555;SDS011;2801;50.972;7.856;2022-09-29T08:11:24;18.73;;;5.40;;
5555;SDS011;2801;50.972;7.856;2022-09-29T08:13:57;12.37;;;5.90;;
5555;SDS011;2801;50.972;7.856;2022-09-29T08:16:25;14.87;;;6.37;;
5555;SDS011;2801;50.972;7.856;2022-09-29T08:18:52;18.73;;;7.27;;
5555;SDS011;2801;50.972;7.856;2022-09-29T08:21:19;16.60;;;6.67;;
5555;SDS011;2801;50.972;7.856;2022-09-29T08:23:45;16.80;;;7.47;;
5555;SDS011;2801;50.972;7.856;2022-09-29T08:26:17;30.83;;;8.73;;
5555;SDS011;2801;50.972;7.856;2022-09-29T08:29:04;21.37;;;9.00;;
5555;SDS011;2801;50.972;7.856;2022-09-29T08:31:34;24.23;;;9.10;;
5555;SDS011;2801;50.972;7.856;2022-09-29T08:34:05;20.90;;;9.50;;
5555;SDS011;2801;50.972;7.856;2022-09-29T08:36:32;25.20;;;10.23;;
5555;SDS011;2801;50.972;7.856;2022-09-29T08:38:59;26.10;;;10.80;;
5555;SDS011;2801;50.972;7.856;2022-09-29T08:44:31;23.30;;;10.57;;
5555;SDS011;2801;50.972;7.856;2022-09-29T08:47:14;23.30;;;10.63;;
5555;SDS011;2801;50.972;7.856;2022-09-29T08:50:43;21.33;;;10.35;;
5555;SDS011;2801;50.972;7.856;2022-09-29T08:53:13;20.48;;;10.45;;
5555;SDS011;2801;50.972;7.856;2022-09-29T08:55:56;20.45;;;10.63;;
5555;SDS011;2801;50.972;7.856;2022-09-29T08:58:38;15.38;;;9.30;;
5555;SDS011;2801;50.972;7.856;2022-09-29T09:09:09;17.77;;;8.57;;
5555;SDS011;2801;50.972;7.856;2022-09-29T09:20:33;16.73;;;9.70;;
5555;SDS011;2801;50.972;7.856;2022-09-29T09:23:18;14.10;;;8.45;;
5555;SDS011;2801;50.972;7.856;2022-09-29T09:25:57;14.40;;;9.00;;
5555;SDS011;2801;50.972;7.856;2022-09-29T09:28:34;17.35;;;8.88;;
5555;SDS011;2801;50.972;7.856;2022-09-29T09:31:21;14.45;;;8.77;;
5555;SDS011;2801;50.972;7.856;2022-09-29T09:34:21;12.50;;;8.43;;
5555;SDS011;2801;50.972;7.856;2022-09-29T09:37:19;13.70;;;8.15;;
5555;SDS011;2801;50.972;7.856;2022-09-29T09:42:34;13.25;;;8.07;;
5555;SDS011;2801;50.972;7.856;2022-09-29T09:48:01;13.45;;;7.65;;
5555;SDS011;2801;50.972;7.856;2022-09-29T09:54:05;10.48;;;7.18;;
5555;SDS011;2801;50.972;7.856;2022-09-29T10:00:09;11.07;;;6.50;;
5555;SDS011;2801;50.972;7.856;2022-09-29T10:02:42;9.48;;;6.47;;
5555;SDS011;2801;50.972;7.856;2022-09-29T10:05:17;9.43;;;6.25;;
5555;SDS011;2801;50.972;7.856;2022-09-29T10:07:49;10.80;;;6.50;;
5555;SDS011;2801;50.972;7.856;2022-09-29T10:10:20;10.93;;;7.18;;
5555;SDS011;2801;50.972;7.856;2022-09-29T10:12:56;9.88;;;6.32;;
5555;SDS011;2801;50.972;7.856;2022-09-29T10:15:39;9.55;;;6.93;;
5555;SDS011;2801;50.972;7.856;2022-09-29T10:18:29;9.48;;;6.38;;
5555;SDS011;2801;50.972;7.856;2022-09-29T10:21:02;6.85;;;5.45;;
5555;SDS011;2801;50.972;7.856;2022-09-29T10:23:33;6.68;;;5.20;;
5555;SDS011;2801;50.972;7.856;2022-09-29T10:28:42;6.03;;;4.18;;
5555;SDS011;2801;50.972;7.856;2022-09-29T10:31:15;6.10;;;3.75;;
5555;SDS011;2801;50.972;7.856;2022-09-29T10:33:59;5.20;;;4.30;;
5555;SDS011;2801;50.972;7.856;2022-09-29T10:36:53;5.00;;;4.03;;
5555;SDS011;2801;50.972;7.856;2022-09-29T10:39:33;7.10;;;3.83;;
5555;SDS011;2801;50.972;7.856;2022-09-29T10:45:00;4.15;;;3.50;;
5555;SDS011;2801;50.972;7.856;2022-09-29T10:47:37;4.90;;;3.47;;
5555;SDS011;2801;50.972;7.856;2022-09-29T10:52:53;4.78;;;3.60;;
5555;SDS011;2801;50.972;7.856;2022-09-29T10:55:23;5.65;;;3.88;;
5555;SDS011;2801;50.972;7.856;2022-09-29T10:57:54;4.53;;;4.07;;
5555;SDS011;2801;50.972;7.856;2022-09-29T11:00:26;4.80;;;3.60;;
5555;SDS011;2801;50.972;7.856;2022-09-29T11:05:55;7.38;;;3.88;;
5555;SDS011;2801;50.972;7.856;2022-09-29T11:08:30;3.78;;;2.80;;
5555;SDS011;2801;50.972;7.856;2022-09-29T11:11:08;3.58;;;2.10;;
5555;SDS011;2801;50.972;7.856;2022-09-29T11:14:22;2.50;;;1.67;;
5555;SDS011;2801;50.972;7.856;2022-09-29T11:16:52;2.80;;;2.08;;
5555;SDS011;2801;50.972;7.856;2022-09-29T11:19:22;4.75;;;2.22;;
5555;SDS011;2801;50.972;7.856;2022-09-29T11:21:53;3.10;;;2.15;;
5555;SDS011;2801;50.972;7.856;2022-09-29T11:30:47;3.40;;;3.10;;
5555;SDS011;2801;50.972;7.856;2022-09-29T11:40:10;2.70;;;2.20;;
5555;SDS011;2801;50.972;7.856;2022-09-29T11:57:12;2.72;;;2.22;;
5555;SDS011;2801;50.972;7.856;2022-09-29T11:59:57;3.80;;;2.60;;
5555;SDS011;2801;50.972;7.856;2022-09-29T12:05:48;3.38;;;2.65;;
5555;SDS011;2801;50.972;7.856;2022-09-29T12:08:35;5.18;;;2.60;;
5555;SDS011;2801;50.972;7.856;2022-09-29T12:11:34;2.65;;;2.08;;
5555;SDS011;2801;50.972;7.856;2022-09-29T12:17:47;5.40;;;3.10;;
5555;SDS011;2801;50.972;7.856;2022-09-29T12:20:24;3.35;;;2.00;;
5555;SDS011;2801;50.972;7.856;2022-09-29T12:23:09;2.40;;;2.20;;
5555;SDS011;2801;50.972;7.856;2022-09-29T12:25:42;3.85;;;2.17;;
5555;SDS011;2801;50.972;7.856;2022-09-29T12:31:38;2.33;;;1.80;;
5555;SDS011;2801;50.972;7.856;2022-09-29T12:34:54;2.50;;;2.13;;
5555;SDS011;2801;50.972;7.856;2022-09-29T12:45:51;2.38;;;2.15;;
5555;SDS011;2801;50.972;7.856;2022-09-29T12:48:28;4.13;;;2.70;;
5555;SDS011;2801;50.972;7.856;2022-09-29T12:51:23;3.50;;;2.35;;
5555;SDS011;2801;50.972;7.856;2022-09-29T13:02:32;3.58;;;3.08;;
5555;SDS011;2801;50.972;7.856;2022-09-29T13:23:03;4.63;;;2.08;;
5555;SDS011;2801;50.972;7.856;2022-09-29T13:29:00;3.00;;;1.80;;
5555;SDS011;2801;50.972;7.856;2022-09-29T13:31:38;2.33;;;1.63;;
5555;SDS011;2801;50.972;7.856;2022-09-29T13:34:30;2.40;;;1.70;;
5555;SDS011;2801;50.972;7.856;2022-09-29T13:37:14;4.75;;;2.88;;
5555;SDS011;2801;50.972;7.856;2022-09-29T13:39:52;5.38;;;3.42;;
5555;SDS011;2801;50.972;7.856;2022-09-29T13:42:40;4.90;;;4.40;;
5555;SDS011;2801;50.972;7.856;2022-09-29T13:47:49;3.00;;;2.40;;
5555;SDS011;2801;50.972;7.856;2022-09-29T13:53:34;5.28;;;2.53;;
5555;SDS011;2801;50.972;7.856;2022-09-29T13:58:32;6.57;;;3.00;;
5555;SDS011;2801;50.972;7.856;2022-09-29T14:01:07;4.15;;;2.55;;
5555;SDS011;2801;50.972;7.856;2022-09-29T14:03:41;3.83;;;2.70;;
5555;SDS011;2801;50.972;7.856;2022-09-29T14:06:17;3.85;;;2.97;;
5555;SDS011;2801;50.972;7.856;2022-09-29T14:09:07;5.07;;;3.17;;
5555;SDS011;2801;50.972;7.856;2022-09-29T14:11:50;4.22;;;2.88;;
5555;SDS011;2801;50.972;7.856;2022-09-29T14:14:25;4.47;;;2.90;;
5555;SDS011;2801;50.972;7.856;2022-09-29T14:27:39;3.78;;;2.90;;
5555;SDS011;2801;50.972;7.856;2022-09-29T14:33:11;5.10;;;4.03;;
5555;SDS011;2801;50.972;7.856;2022-09-29T14:38:48;3.42;;;2.90;;
5555;SDS011;2801;50.972;7.856;2022-09-29T14:41:41;2.63;;;2.28;;
5555;SDS011;2801;50.972;7.856;2022-09-29T14:44:15;2.38;;;2.13;;
5555;SDS011;2801;50.972;7.856;2022-09-29T14:47:39;3.00;;;2.60;;
5555;SDS011;2801;50.972;7.856;2022-09-29T14:50:45;3.35;;;2.50;;
5555;SDS011;2801;50.972;7.856;2022-09-29T14:54:07;3.25;;;2.67;;
5555;SDS011;2801;50.972;7.856;2022-09-29T14:56:56;3.10;;;2.28;;
5555;SDS011;2801;50.972;7.856;2022-09-29T15:00:15;3.33;;;2.15;;
5555;SDS011;2801;50.972;7.856;2022-09-29T15:02:47;3.20;;;2.00;;
5555;SDS011;2801;50.972;7.856;2022-09-29T15:05:36;2.55;;;2.33;;
5555;SDS011;2801;50.972;7.856;2022-09-29T15:08:21;5.15;;;2.50;;
5555;SDS011;2801;50.972;7.856;2022-09-29T15:10:56;3.35;;;2.00;;
5555;SDS011;2801;50.972;7.856;2022-09-29T15:13:24;2.28;;;1.92;;
5555;SDS011;2801;50.972;7.856;2022-09-29T15:16:32;2.60;;;2.10;;
5555;SDS011;2801;50.972;7.856;2022-09-29T15:27:58;2.28;;;1.95;;
5555;SDS011;2801;50.972;7.856;2022-09-29T15:30:26;1.70;;;1.60;;
5555;SDS011;2801;50.972;7.856;2022-09-29T15:35:50;2.75;;;1.90;;
5555;SDS011;2801;50.972;7.856;2022-09-29T15:40:53;3.15;;;2.17;;
5555;SDS011;2801;50.972;7.856;2022-09-29T15:43:24;2.95;;;1.90;;
5555;SDS011;2801;50.972;7.856;2022-09-29T15:45:59;3.20;;;2.17;;
5555;SDS011;2801;50.972;7.856;2022-09-29T15:48:37;1.95;;;1.73;;
5555;SDS011;2801;50.972;7.856;2022-09-29T15:51:04;3.67;;;2.45;;
5555;SDS011;2801;50.972;7.856;2022-09-29T15:53:42;2.15;;;1.95;;
5555;SDS011;2801;50.972;7.856;2022-09-29T15:56:11;2.55;;;1.60;;
5555;SDS011;2801;50.972;7.856;2022-09-29T15:58:42;2.70;;;1.65;;
5555;SDS011;2801;50.972;7.856;2022-09-29T16:01:11;1.60;;;1.50;;
5555;SDS011;2801;50.972;7.856;2022-09-29T16:03:54;1.50;;;1.40;;
5555;SDS011;2801;50.972;7.856;2022-09-29T16:06:33;4.00;;;1.38;;
5555;SDS011;2801;50.972;7.856;2022-09-29T16:09:04;2.30;;;1.40;;
5555;SDS011;2801;50.972;7.856;2022-09-29T16:11:43;3.38;;;1.35;;
5555;SDS011;2801;50.972;7.856;2022-09-29T16:14:14;2.08;;;1.50;;
5555;SDS011;2801;50.972;7.856;2022-09-29T16:16:53;1.40;;;1.23;;
5555;SDS011;2801;50.972;7.856;2022-09-29T16:19:28;8.45;;;1.75;;
5555;SDS011;2801;50.972;7.856;2022-09-29T16:21:59;2.97;;;1.80;;
5555;SDS011;2801;50.972;7.856;2022-09-29T16:24:33;1.50;;;1.40;;
5555;SDS011;2801;50.972;7.856;2022-09-29T16:27:37;2.33;;;1.60;;
5555;SDS011;2801;50.972;7.856;2022-09-29T16:33:12;5.55;;;1.58;;
5555;SDS011;2801;50.972;7.856;2022-09-29T16:40:52;2.08;;;1.42;;
5555;SDS011;2801;50.972;7.856;2022-09-29T16:43:23;2.00;;;1.58;;
5555;SDS011;2801;50.972;7.856;2022-09-29T16:46:00;2.50;;;1.45;;
5555;SDS011;2801;50.972;7.856;2022-09-29T16:48:35;2.35;;;1.48;;
5555;SDS011;2801;50.972;7.856;2022-09-29T16:51:11;2.25;;;1.85;;
5555;SDS011;2801;50.972;7.856;2022-09-29T16:54:05;2.05;;;1.60;;
5555;SDS011;2801;50.972;7.856;2022-09-29T16:56:41;2.83;;;2.00;;
5555;SDS011;2801;50.972;7.856;2022-09-29T16:59:14;2.88;;;2.28;;
5555;SDS011;2801;50.972;7.856;2022-09-29T17:01:44;4.05;;;1.88;;
5555;SDS011;2801;50.972;7.856;2022-09-29T17:04:13;3.55;;;2.50;;
5555;SDS011;2801;50.972;7.856;2022-09-29T17:06:43;5.07;;;2.42;;
5555;SDS011;2801;50.972;7.856;2022-09-29T17:09:15;6.90;;;5.28;;
5555;SDS011;2801;50.972;7.856;2022-09-29T17:11:50;13.00;;;6.03;;
5555;SDS011;2801;50.972;7.856;2022-09-29T17:14:17;12.07;;;7.90;;
5555;SDS011;2801;50.972;7.856;2022-09-29T17:16:44;12.25;;;7.65;;
5555;SDS011;2801;50.972;7.856;2022-09-29T17:19:11;10.82;;;6.80;;
5555;SDS011;2801;50.972;7.856;2022-09-29T17:21:38;8.48;;;5.05;;
5555;SDS011;2801;50.972;7.856;2022-09-29T17:24:05;4.85;;;3.78;;
5555;SDS011;2801;50.972;7.856;2022-09-29T17:26:39;5.88;;;4.63;;
5555;SDS011;2801;50.972;7.856;2022-09-29T17:29:28;6.43;;;4.30;;
5555;SDS011;2801;50.972;7.856;2022-09-29T17:31:56;6.20;;;4.32;;
5555;SDS011;2801;50.972;7.856;2022-09-29T17:34:23;8.40;;;5.43;;
5555;SDS011;2801;50.972;7.856;2022-09-29T17:36:57;7.78;;;4.65;;
5555;SDS011;2801;50.972;7.856;2022-09-29T17:39:26;8.55;;;5.82;;
5555;SDS011;2801;50.972;7.856;2022-09-29T17:41:53;11.57;;;7.00;;
5555;SDS011;2801;50.972;7.856;2022-09-29T17:44:20;12.65;;;7.25;;
5555;SDS011;2801;50.972;7.856;2022-09-29T17:46:47;10.55;;;6.55;;
5555;SDS011;2801;50.972;7.856;2022-09-29T17:49:17;8.13;;;5.78;;
5555;SDS011;2801;50.972;7.856;2022-09-29T17:51:44;10.17;;;5.43;;
5555;SDS011;2801;50.972;7.856;2022-09-29T17:54:11;6.82;;;4.63;;
5555;SDS011;2801;50.972;7.856;2022-09-29T17:56:38;6.30;;;4.07;;
5555;SDS011;2801;50.972;7.856;2022-09-29T17:59:09;8.00;;;3.90;;
5555;SDS011;2801;50.972;7.856;2022-09-29T18:01:36;5.32;;;3.65;;
5555;SDS011;2801;50.972;7.856;2022-09-29T18:04:04;6.17;;;3.67;;
5555;SDS011;2801;50.972;7.856;2022-09-29T18:06:33;9.97;;;4.00;;
5555;SDS011;2801;50.972;7.856;2022-09-29T18:09:10;13.95;;;4.60;;
5555;SDS011;2801;50.972;7.856;2022-09-29T18:11:43;6.80;;;4.00;;
5555;SDS011;2801;50.972;7.856;2022-09-29T18:14:10;6.88;;;3.70;;
5555;SDS011;2801;50.972;7.856;2022-09-29T18:16:37;5.05;;;3.90;;
5555;SDS011;2801;50.972;7.856;2022-09-29T18:19:05;5.57;;;3.85;;
5555;SDS011;2801;50.972;7.856;2022-09-29T18:21:42;7.07;;;3.83;;
5555;SDS011;2801;50.972;7.856;2022-09-29T18:24:09;9.57;;;6.50;;
5555;SDS011;2801;50.972;7.856;2022-09-29T18:26:35;12.70;;;7.47;;
5555;SDS011;2801;50.972;7.856;2022-09-29T18:29:13;16.42;;;9.38;;
5555;SDS011;2801;50.972;7.856;2022-09-29T18:31:42;14.50;;;8.73;;
5555;SDS011;2801;50.972;7.856;2022-09-29T18:34:11;14.50;;;10.13;;
5555;SDS011;2801;50.972;7.856;2022-09-29T18:36:42;9.90;;;7.30;;
5555;SDS011;2801;50.972;7.856;2022-09-29T18:39:12;9.93;;;6.63;;
5555;SDS011;2801;50.972;7.856;2022-09-29T18:41:39;11.23;;;6.77;;
5555;SDS011;2801;50.972;7.856;2022-09-29T18:44:14;11.10;;;8.20;;
5555;SDS011;2801;50.972;7.856;2022-09-29T18:46:43;14.17;;;10.27;;
5555;SDS011;2801;50.972;7.856;2022-09-29T18:49:11;18.47;;;13.90;;
5555;SDS011;2801;50.972;7.856;2022-09-29T18:51:39;53.90;;;30.10;;
5555;SDS011;2801;50.972;7.856;2022-09-29T18:54:06;60.17;;;31.23;;
5555;SDS011;2801;50.972;7.856;2022-09-29T18:56:34;54.93;;;25.63;;
5555;SDS011;2801;50.972;7.856;2022-09-29T18:59:00;36.57;;;17.93;;
5555;SDS011;2801;50.972;7.856;2022-09-29T19:01:30;42.23;;;19.63;;